x

Fairweather Ground 105nm West Of Juno, Ak (46083) Wave Buoy

2:50pm - Mon 25th Jul 2016 All times are AKDT. -8 hours from GMT.

  • Sig Wave height 5.6ft
  • Swell Direction
  • Peak Period 8s
  • Average Period 6s
  • Wind
    11mph, 13mph gusts
  • Sea Temp 56°f
  • Air Temp 55°f
  • Sea Pressure 1018.3mb
  • Fairweather Ground 105nm West  Of Juno, Ak
  • Fairweather Ground 105nm West  Of Juno, Ak

More Historic Weather Station data

Upgrade to MSW Pro to gain access to the past 30 days of data for over 8000 Wavebouys and Weather Stations around the globe.

Join Pro

Comparision Forecast

View Surf forecast
   
Mon 07/25 2:50pm 5.5ft 8s 6s 11 13 mph 1018.3mb 56f 55f
1:50pm 5.5ft 9s 6s 11 13 mph 1018.6mb 55f 54f
12:50pm 5ft 8s 6s 9 11 mph 1018.4mb 56f 55f
11:50am 5ft 9s 6s 9 11 mph 1018.1mb 55f 56f
9:50am 6ft 8s 6s 11 13 mph 1017.7mb 55f 55f
8:50am 5.5ft 8s 6s 13 16 mph 1017.1mb 55f 56f
7:50am 6ft 8s 6s 13 18 mph 1016.8mb 55f 56f
6:50am 6.5ft 10s 7s 13 18 mph 1016.3mb 56f 55f
5:50am 7ft 9s 6s 11 16 mph 1016.1mb 56f 55f
4:50am 7.5ft 9s 7s 11 13 mph 1016.1mb 56f 56f
3:50am 7ft 9s 7s 13 16 mph 1016.2mb 56f 56f
2:50am 7ft 9s 7s 13 16 mph 1016.1mb 55f 55f
1:50am 6.5ft 10s 6s 13 16 mph 1016mb 55f 55f
12:50am 7ft 10s 6s 13 16 mph 1016.1mb 55f 55f
Sun 07/24 11:50pm 6.5ft 9s 7s 16 20 mph 1015.9mb 55f 56f
10:50pm 6ft 10s 7s 13 16 mph 1015.7mb 56f 56f
9:50pm 6ft 11s 7s 13 16 mph 1015.4mb 56f 56f
8:50pm 6.5ft 11s 7s 11 13 mph 1015mb 56f 57f
7:50pm 7ft 9s 7s 11 13 mph 1014.7mb 56f 57f
6:50pm 7ft 10s 7s 11 16 mph 1014.5mb 56f 58f
5:50pm 7ft 9s 7s 11 13 mph 1014mb 56f 58f
4:50pm 8ft 10s 7s 13 16 mph 1013.6mb 56f 58f
3:50pm 7.5ft 9s 7s 11 13 mph 1013.3mb 56f 58f
2:50pm 9.5ft 10s 8s 9 11 mph 1012.9mb 56f 58f
1:50pm 8ft 10s 7s 11 13 mph 1012.4mb 56f 57f
12:50pm 9ft 11s 7s 9 11 mph 1012.1mb 56f 58f
11:50am 9ft 10s 7s 9 11 mph 1011.4mb 56f 57f
10:50am 9ft 10s 7s 7 9 mph 1010.6mb 56f 58f
9:50am 9ft 11s 7s 9 11 mph 1010mb 56f 57f
8:50am 8ft 10s 7s 11 13 mph 1008.8mb 55f 56f
7:50am 9ft 10s 7s 13 16 mph 1007.5mb 56f 56f
6:50am 9ft 10s 7s 11 13 mph 1006.5mb 56f 56f
5:50am 10.5ft 11s 7s 16 20 mph 1005.6mb 56f 56f
4:50am 10.5ft 11s 8s 18 22 mph 1004.5mb 56f 56f
3:50am 11.5ft 11s 8s 16 18 mph 1004.1mb 56f 57f
2:50am 11ft 11s 8s 13 16 mph 1003.6mb 56f 57f
1:50am 11ft 10s 7s 18 25 mph 1002.9mb 55f 57f
12:50am 11ft 10s 8s 16 20 mph 1002.7mb 55f 57f
Sat 07/23 11:50pm 9ft 10s 7s 22 29 mph 1002mb 55f 57f
10:50pm 9ft 10s 7s 20 25 mph 1002.4mb 55f 56f
9:50pm 9ft 8s 7s 18 20 mph 1002.6mb 56f 56f
8:50pm 9.5ft 9s 7s 22 27 mph 1002mb 56f 56f
7:50pm 9ft 9s 7s 20 22 mph 1002.2mb 56f 56f
6:50pm 10ft 8s 7s 16 18 mph 1002.5mb 56f 57f
5:50pm 9ft 8s 7s 16 18 mph 1002.5mb 56f 58f
4:50pm 8ft 8s 6s 18 22 mph 1002.3mb 56f 57f
3:50pm 8.5ft 7s 6s 18 20 mph 1002.4mb 56f 57f
2:50pm 7.5ft 7s 6s 18 22 mph 1002.3mb 56f 58f
1:50pm 7ft 7s 6s 20 22 mph 1002mb 56f 57f
12:50pm 7ft 7s 6s 20 25 mph 1001.6mb 56f 58f
11:50am 6.5ft 7s 6s 22 25 mph 1000.9mb 56f 58f
10:50am 6.5ft 7s 6s 18 22 mph 1000.8mb 57f 58f
9:50am 7ft 7s 6s 18 22 mph 1000.7mb 57f 57f
8:50am 6.5ft 7s 6s 20 22 mph 1000.8mb 57f 56f
7:50am 6ft 7s 5s 20 22 mph 1000.8mb 56f 56f
6:50am 6.5ft 7s 5s 20 22 mph 1000.9mb 56f 56f
5:50am 7ft 7s 5s 25 29 mph 1001mb 56f 56f
4:50am 7.5ft 7s 6s 22 27 mph 1002mb 56f 55f
3:50am 6ft 7s 5s 22 27 mph 1002.9mb 56f 56f
2:50am 5ft 6s 5s 27 34 mph 1003.4mb 56f 57f
1:50am 4.5ft 6s 5s 25 29 mph 1004.3mb 56f 56f
12:50am 4.5ft 5s 5s 20 25 mph 1005.4mb 56f 56f
Fri 07/22 11:50pm 4.5ft 15s 5s 22 25 mph 1006.4mb 58f 57f
10:50pm 4ft 15s 5s 18 22 mph 1007.2mb 59f 58f
9:50pm 3.5ft 16s 5s 18 20 mph 1007.6mb 60f 58f
8:50pm 3.5ft 16s 5s 16 18 mph 1008mb 60f 58f
7:50pm 3.5ft 6s 5s 16 20 mph 1008.4mb 59f 58f
6:50pm 3.5ft 6s 5s 13 18 mph 1008.7mb 59f 58f
5:50pm 3.5ft 5s 5s 11
mph
1009.1mb 58f 58f
4:50pm 3.5ft 16s 6s 9 11 mph 1009.2mb 57f 58f
3:50pm 3.5ft 15s 5s 9 11 mph 1009.7mb 56f 58f
2:50pm 3.5ft 15s 5s 9 11 mph 1010.1mb 57f 58f
1:50pm 3.5ft 7s 5s 11 13 mph 1010.4mb 58f 57f
12:50pm 3.5ft 14s 6s 13 16 mph 1010.4mb 59f 57f
11:50am 3.5ft 16s 5s 11 13 mph 1010.8mb 59f 57f
9:50am 3.5ft 8s 5s 11 13 mph 1010.9mb 59f 58f
8:50am 3.5ft 15s 5s 9 11 mph 1011.1mb 59f 57f
7:50am 3.5ft 15s 5s 13 16 mph 1011.1mb 59f 57f
6:50am 3.5ft 15s 6s 13 16 mph 1011.3mb 59f 57f
5:50am 3.5ft 15s 6s 9 11 mph 1011.4mb 59f 57f
4:50am 3.5ft 8s 6s 11 13 mph 1011.9mb 59f 57f
3:50am 3.5ft 8s 5s 9 13 mph 1011.9mb 59f 56f
2:50am 4ft 8s 5s 13 18 mph 1012.1mb 59f 56f
1:50am 3.5ft 8s 6s 13 16 mph 1012.5mb 59f 56f
12:50am 3.5ft 15s 6s 13 16 mph 1013mb 59f 56f
Thu 07/21 11:50pm 3.5ft 15s 5s 9 11 mph 1013.5mb 59f 56f